<?xml version="1.0" encoding="UTF-8" standalone="no" ?>
<gpx xmlns="http://www.topografix.com/GPX/1/1" xmlns:xsi="http://www.w3.org/2001/XMLSchema-instance" xsi:schemaLocation="http://www.topografix.com/GPX/1/1 http://www.topografix.com/GPX/1/1/gpx.xsd" version="1.1" creator="VisuGPX - https://www.visugpx.com">
  <metadata>
    <name>Itinéraire VTT n°5 Sous la dent - Rouge</name>
  </metadata>
  <trk>
    <name><![CDATA[13096539-Sous la dent ]]></name>
    <extensions>
      <line xmlns="http://www.topografix.com/GPX/gpx_style/0/2">
        <color>00FFFF</color>
        <width>4</width>
      </line>
    </extensions>
    <trkseg>
      <trkpt lat="45.74678" lon="6.29606">
        <ele>519</ele>
        <time>2021-05-21T11:57:35Z</time>
      </trkpt>
      <trkpt lat="45.74673" lon="6.29631">
        <ele>520</ele>
        <time>2021-05-21T11:57:39Z</time>
      </trkpt>
      <trkpt lat="45.7467" lon="6.29639">
        <ele>520</ele>
        <time>2021-05-21T11:57:41Z</time>
      </trkpt>
      <trkpt lat="45.74666" lon="6.29643">
        <ele>521</ele>
        <time>2021-05-21T11:57:42Z</time>
      </trkpt>
      <trkpt lat="45.74654" lon="6.2964">
        <ele>523</ele>
        <time>2021-05-21T11:57:45Z</time>
      </trkpt>
      <trkpt lat="45.74652" lon="6.29659">
        <ele>524</ele>
        <time>2021-05-21T11:57:48Z</time>
      </trkpt>
      <trkpt lat="45.74653" lon="6.29697">
        <ele>528</ele>
        <time>2021-05-21T11:57:54Z</time>
      </trkpt>
      <trkpt lat="45.74653" lon="6.29697">
        <ele>528</ele>
        <time>2021-05-21T11:57:54Z</time>
      </trkpt>
      <trkpt lat="45.74651" lon="6.29706">
        <ele>529</ele>
        <time>2021-05-21T11:57:56Z</time>
      </trkpt>
      <trkpt lat="45.7465" lon="6.29719">
        <ele>531</ele>
        <time>2021-05-21T11:57:58Z</time>
      </trkpt>
      <trkpt lat="45.74655" lon="6.29755">
        <ele>533</ele>
        <time>2021-05-21T11:58:04Z</time>
      </trkpt>
      <trkpt lat="45.74672" lon="6.29821">
        <ele>531</ele>
        <time>2021-05-21T11:58:15Z</time>
      </trkpt>
      <trkpt lat="45.74688" lon="6.29864">
        <ele>528</ele>
        <time>2021-05-21T11:58:23Z</time>
      </trkpt>
      <trkpt lat="45.74696" lon="6.29912">
        <ele>527</ele>
        <time>2021-05-21T11:58:31Z</time>
      </trkpt>
      <trkpt lat="45.74683" lon="6.2993">
        <ele>532</ele>
        <time>2021-05-21T11:58:35Z</time>
      </trkpt>
      <trkpt lat="45.74696" lon="6.29971">
        <ele>533</ele>
        <time>2021-05-21T11:58:43Z</time>
      </trkpt>
      <trkpt lat="45.747" lon="6.29994">
        <ele>534</ele>
        <time>2021-05-21T11:58:47Z</time>
      </trkpt>
      <trkpt lat="45.74699" lon="6.3002">
        <ele>539</ele>
        <time>2021-05-21T11:58:51Z</time>
      </trkpt>
      <trkpt lat="45.74707" lon="6.3005">
        <ele>541</ele>
        <time>2021-05-21T11:58:56Z</time>
      </trkpt>
      <trkpt lat="45.74727" lon="6.30091">
        <ele>542</ele>
        <time>2021-05-21T11:59:04Z</time>
      </trkpt>
      <trkpt lat="45.74736" lon="6.30122">
        <ele>548</ele>
        <time>2021-05-21T11:59:10Z</time>
      </trkpt>
      <trkpt lat="45.74768" lon="6.30184">
        <ele>554</ele>
        <time>2021-05-21T11:59:22Z</time>
      </trkpt>
      <trkpt lat="45.74785" lon="6.30206">
        <ele>553</ele>
        <time>2021-05-21T11:59:28Z</time>
      </trkpt>
      <trkpt lat="45.74791" lon="6.3024">
        <ele>558</ele>
        <time>2021-05-21T11:59:33Z</time>
      </trkpt>
      <trkpt lat="45.74816" lon="6.30297">
        <ele>560</ele>
        <time>2021-05-21T11:59:44Z</time>
      </trkpt>
      <trkpt lat="45.7481" lon="6.30322">
        <ele>566</ele>
        <time>2021-05-21T11:59:49Z</time>
      </trkpt>
      <trkpt lat="45.748" lon="6.30342">
        <ele>572</ele>
        <time>2021-05-21T11:59:53Z</time>
      </trkpt>
      <trkpt lat="45.74804" lon="6.3037">
        <ele>576</ele>
        <time>2021-05-21T11:59:57Z</time>
      </trkpt>
      <trkpt lat="45.74864" lon="6.30484">
        <ele>566</ele>
        <time>2021-05-21T12:00:21Z</time>
      </trkpt>
      <trkpt lat="45.74858" lon="6.30539">
        <ele>574</ele>
        <time>2021-05-21T12:00:30Z</time>
      </trkpt>
      <trkpt lat="45.74864" lon="6.30624">
        <ele>576</ele>
        <time>2021-05-21T12:00:43Z</time>
      </trkpt>
      <trkpt lat="45.74857" lon="6.30638">
        <ele>580</ele>
        <time>2021-05-21T12:00:46Z</time>
      </trkpt>
      <trkpt lat="45.74834" lon="6.30673">
        <ele>592</ele>
        <time>2021-05-21T12:00:54Z</time>
      </trkpt>
      <trkpt lat="45.74807" lon="6.30722">
        <ele>602</ele>
        <time>2021-05-21T12:01:04Z</time>
      </trkpt>
      <trkpt lat="45.74802" lon="6.30736">
        <ele>604</ele>
        <time>2021-05-21T12:01:07Z</time>
      </trkpt>
      <trkpt lat="45.74801" lon="6.3077">
        <ele>604</ele>
        <time>2021-05-21T12:01:12Z</time>
      </trkpt>
      <trkpt lat="45.74807" lon="6.30793">
        <ele>601</ele>
        <time>2021-05-21T12:01:16Z</time>
      </trkpt>
      <trkpt lat="45.74807" lon="6.30821">
        <ele>599</ele>
        <time>2021-05-21T12:01:21Z</time>
      </trkpt>
      <trkpt lat="45.74803" lon="6.30846">
        <ele>598</ele>
        <time>2021-05-21T12:01:25Z</time>
      </trkpt>
      <trkpt lat="45.74779" lon="6.30928">
        <ele>594</ele>
        <time>2021-05-21T12:01:40Z</time>
      </trkpt>
      <trkpt lat="45.74741" lon="6.30979">
        <ele>594</ele>
        <time>2021-05-21T12:01:52Z</time>
      </trkpt>
      <trkpt lat="45.74718" lon="6.31015">
        <ele>591</ele>
        <time>2021-05-21T12:02:00Z</time>
      </trkpt>
      <trkpt lat="45.74695" lon="6.31039">
        <ele>590</ele>
        <time>2021-05-21T12:02:06Z</time>
      </trkpt>
      <trkpt lat="45.74673" lon="6.3108">
        <ele>586</ele>
        <time>2021-05-21T12:02:15Z</time>
      </trkpt>
      <trkpt lat="45.74663" lon="6.31106">
        <ele>584</ele>
        <time>2021-05-21T12:02:20Z</time>
      </trkpt>
      <trkpt lat="45.74652" lon="6.31152">
        <ele>580</ele>
        <time>2021-05-21T12:02:28Z</time>
      </trkpt>
      <trkpt lat="45.74637" lon="6.3121">
        <ele>578</ele>
        <time>2021-05-21T12:02:38Z</time>
      </trkpt>
      <trkpt lat="45.74625" lon="6.31268">
        <ele>575</ele>
        <time>2021-05-21T12:02:48Z</time>
      </trkpt>
      <trkpt lat="45.74618" lon="6.31329">
        <ele>569</ele>
        <time>2021-05-21T12:02:58Z</time>
      </trkpt>
      <trkpt lat="45.74609" lon="6.31389">
        <ele>567</ele>
        <time>2021-05-21T12:03:08Z</time>
      </trkpt>
      <trkpt lat="45.74604" lon="6.31401">
        <ele>567</ele>
        <time>2021-05-21T12:03:10Z</time>
      </trkpt>
      <trkpt lat="45.74585" lon="6.31419">
        <ele>568</ele>
        <time>2021-05-21T12:03:15Z</time>
      </trkpt>
      <trkpt lat="45.74579" lon="6.31431">
        <ele>570</ele>
        <time>2021-05-21T12:03:18Z</time>
      </trkpt>
      <trkpt lat="45.74577" lon="6.31443">
        <ele>571</ele>
        <time>2021-05-21T12:03:20Z</time>
      </trkpt>
      <trkpt lat="45.74576" lon="6.31465">
        <ele>572</ele>
        <time>2021-05-21T12:03:23Z</time>
      </trkpt>
      <trkpt lat="45.74587" lon="6.31569">
        <ele>574</ele>
        <time>2021-05-21T12:03:40Z</time>
      </trkpt>
      <trkpt lat="45.746" lon="6.31633">
        <ele>574</ele>
        <time>2021-05-21T12:03:51Z</time>
      </trkpt>
      <trkpt lat="45.74608" lon="6.31723">
        <ele>578</ele>
        <time>2021-05-21T12:04:06Z</time>
      </trkpt>
      <trkpt lat="45.74613" lon="6.31758">
        <ele>580</ele>
        <time>2021-05-21T12:04:12Z</time>
      </trkpt>
      <trkpt lat="45.74624" lon="6.31782">
        <ele>578</ele>
        <time>2021-05-21T12:04:17Z</time>
      </trkpt>
      <trkpt lat="45.74642" lon="6.31811">
        <ele>572</ele>
        <time>2021-05-21T12:04:23Z</time>
      </trkpt>
      <trkpt lat="45.74651" lon="6.31833">
        <ele>569</ele>
        <time>2021-05-21T12:04:27Z</time>
      </trkpt>
      <trkpt lat="45.74666" lon="6.31854">
        <ele>562</ele>
        <time>2021-05-21T12:04:32Z</time>
      </trkpt>
      <trkpt lat="45.74679" lon="6.31906">
        <ele>557</ele>
        <time>2021-05-21T12:04:41Z</time>
      </trkpt>
      <trkpt lat="45.74675" lon="6.31932">
        <ele>559</ele>
        <time>2021-05-21T12:04:45Z</time>
      </trkpt>
      <trkpt lat="45.7467" lon="6.31954">
        <ele>562</ele>
        <time>2021-05-21T12:04:49Z</time>
      </trkpt>
      <trkpt lat="45.74674" lon="6.32009">
        <ele>560</ele>
        <time>2021-05-21T12:04:58Z</time>
      </trkpt>
      <trkpt lat="45.74685" lon="6.32069">
        <ele>555</ele>
        <time>2021-05-21T12:05:08Z</time>
      </trkpt>
      <trkpt lat="45.74694" lon="6.32108">
        <ele>552</ele>
        <time>2021-05-21T12:05:15Z</time>
      </trkpt>
      <trkpt lat="45.74712" lon="6.3217">
        <ele>548</ele>
        <time>2021-05-21T12:05:26Z</time>
      </trkpt>
      <trkpt lat="45.74729" lon="6.32192">
        <ele>544</ele>
        <time>2021-05-21T12:05:31Z</time>
      </trkpt>
      <trkpt lat="45.74739" lon="6.322">
        <ele>541</ele>
        <time>2021-05-21T12:05:34Z</time>
      </trkpt>
      <trkpt lat="45.74745" lon="6.32213">
        <ele>540</ele>
        <time>2021-05-21T12:05:36Z</time>
      </trkpt>
      <trkpt lat="45.7476" lon="6.32238">
        <ele>540</ele>
        <time>2021-05-21T12:05:42Z</time>
      </trkpt>
      <trkpt lat="45.74779" lon="6.32262">
        <ele>542</ele>
        <time>2021-05-21T12:05:48Z</time>
      </trkpt>
      <trkpt lat="45.74802" lon="6.32288">
        <ele>545</ele>
        <time>2021-05-21T12:05:54Z</time>
      </trkpt>
      <trkpt lat="45.74811" lon="6.32303">
        <ele>546</ele>
        <time>2021-05-21T12:05:58Z</time>
      </trkpt>
      <trkpt lat="45.7483" lon="6.32338">
        <ele>549</ele>
        <time>2021-05-21T12:06:05Z</time>
      </trkpt>
      <trkpt lat="45.74841" lon="6.32363">
        <ele>550</ele>
        <time>2021-05-21T12:06:10Z</time>
      </trkpt>
      <trkpt lat="45.74842" lon="6.32364">
        <ele>550</ele>
        <time>2021-05-21T12:06:10Z</time>
      </trkpt>
      <trkpt lat="45.74863" lon="6.32406">
        <ele>552</ele>
        <time>2021-05-21T12:06:18Z</time>
      </trkpt>
      <trkpt lat="45.74873" lon="6.32429">
        <ele>553</ele>
        <time>2021-05-21T12:06:23Z</time>
      </trkpt>
      <trkpt lat="45.74875" lon="6.32435">
        <ele>553</ele>
        <time>2021-05-21T12:06:24Z</time>
      </trkpt>
      <trkpt lat="45.74878" lon="6.3246">
        <ele>554</ele>
        <time>2021-05-21T12:06:28Z</time>
      </trkpt>
      <trkpt lat="45.74879" lon="6.32479">
        <ele>555</ele>
        <time>2021-05-21T12:06:31Z</time>
      </trkpt>
      <trkpt lat="45.74882" lon="6.32508">
        <ele>556</ele>
        <time>2021-05-21T12:06:36Z</time>
      </trkpt>
      <trkpt lat="45.74885" lon="6.32537">
        <ele>556</ele>
        <time>2021-05-21T12:06:41Z</time>
      </trkpt>
      <trkpt lat="45.74891" lon="6.3257">
        <ele>557</ele>
        <time>2021-05-21T12:06:46Z</time>
      </trkpt>
      <trkpt lat="45.74892" lon="6.32576">
        <ele>557</ele>
        <time>2021-05-21T12:06:47Z</time>
      </trkpt>
      <trkpt lat="45.74871" lon="6.32603">
        <ele>561</ele>
        <time>2021-05-21T12:06:54Z</time>
      </trkpt>
      <trkpt lat="45.7487" lon="6.32607">
        <ele>561</ele>
        <time>2021-05-21T12:06:55Z</time>
      </trkpt>
      <trkpt lat="45.74874" lon="6.32621">
        <ele>560</ele>
        <time>2021-05-21T12:06:57Z</time>
      </trkpt>
      <trkpt lat="45.74885" lon="6.32637">
        <ele>559</ele>
        <time>2021-05-21T12:07:01Z</time>
      </trkpt>
      <trkpt lat="45.74895" lon="6.32662">
        <ele>557</ele>
        <time>2021-05-21T12:07:05Z</time>
      </trkpt>
      <trkpt lat="45.749" lon="6.32709">
        <ele>558</ele>
        <time>2021-05-21T12:07:13Z</time>
      </trkpt>
      <trkpt lat="45.74895" lon="6.32752">
        <ele>561</ele>
        <time>2021-05-21T12:07:20Z</time>
      </trkpt>
      <trkpt lat="45.74891" lon="6.32778">
        <ele>563</ele>
        <time>2021-05-21T12:07:25Z</time>
      </trkpt>
      <trkpt lat="45.7489" lon="6.32788">
        <ele>564</ele>
        <time>2021-05-21T12:07:26Z</time>
      </trkpt>
      <trkpt lat="45.74891" lon="6.32807">
        <ele>564</ele>
        <time>2021-05-21T12:07:29Z</time>
      </trkpt>
      <trkpt lat="45.74908" lon="6.32843">
        <ele>563</ele>
        <time>2021-05-21T12:07:36Z</time>
      </trkpt>
      <trkpt lat="45.74947" lon="6.32886">
        <ele>561</ele>
        <time>2021-05-21T12:07:48Z</time>
      </trkpt>
      <trkpt lat="45.74974" lon="6.32919">
        <ele>555</ele>
        <time>2021-05-21T12:07:56Z</time>
      </trkpt>
      <trkpt lat="45.7509" lon="6.33049">
        <ele>533</ele>
        <time>2021-05-21T12:08:31Z</time>
      </trkpt>
      <trkpt lat="45.75117" lon="6.33069">
        <ele>528</ele>
        <time>2021-05-21T12:08:38Z</time>
      </trkpt>
      <trkpt lat="45.75129" lon="6.33088">
        <ele>526</ele>
        <time>2021-05-21T12:08:42Z</time>
      </trkpt>
      <trkpt lat="45.75121" lon="6.33124">
        <ele>541</ele>
        <time>2021-05-21T12:08:48Z</time>
      </trkpt>
      <trkpt lat="45.75124" lon="6.33138">
        <ele>543</ele>
        <time>2021-05-21T12:08:50Z</time>
      </trkpt>
      <trkpt lat="45.75138" lon="6.33166">
        <ele>543</ele>
        <time>2021-05-21T12:08:56Z</time>
      </trkpt>
      <trkpt lat="45.75145" lon="6.33186">
        <ele>544</ele>
        <time>2021-05-21T12:09:00Z</time>
      </trkpt>
      <trkpt lat="45.75149" lon="6.332">
        <ele>545</ele>
        <time>2021-05-21T12:09:02Z</time>
      </trkpt>
      <trkpt lat="45.75152" lon="6.33244">
        <ele>555</ele>
        <time>2021-05-21T12:09:09Z</time>
      </trkpt>
      <trkpt lat="45.7516" lon="6.33275">
        <ele>556</ele>
        <time>2021-05-21T12:09:15Z</time>
      </trkpt>
      <trkpt lat="45.7517" lon="6.33299">
        <ele>556</ele>
        <time>2021-05-21T12:09:19Z</time>
      </trkpt>
      <trkpt lat="45.75186" lon="6.33325">
        <ele>556</ele>
        <time>2021-05-21T12:09:25Z</time>
      </trkpt>
      <trkpt lat="45.75217" lon="6.33361">
        <ele>548</ele>
        <time>2021-05-21T12:09:34Z</time>
      </trkpt>
      <trkpt lat="45.7523" lon="6.33381">
        <ele>545</ele>
        <time>2021-05-21T12:09:39Z</time>
      </trkpt>
      <trkpt lat="45.75239" lon="6.33414">
        <ele>547</ele>
        <time>2021-05-21T12:09:44Z</time>
      </trkpt>
      <trkpt lat="45.75244" lon="6.3356">
        <ele>555</ele>
        <time>2021-05-21T12:10:08Z</time>
      </trkpt>
      <trkpt lat="45.75269" lon="6.33663">
        <ele>557</ele>
        <time>2021-05-21T12:10:26Z</time>
      </trkpt>
      <trkpt lat="45.75279" lon="6.33688">
        <ele>557</ele>
        <time>2021-05-21T12:10:31Z</time>
      </trkpt>
      <trkpt lat="45.75311" lon="6.33788">
        <ele>557</ele>
        <time>2021-05-21T12:10:49Z</time>
      </trkpt>
      <trkpt lat="45.75319" lon="6.33841">
        <ele>560</ele>
        <time>2021-05-21T12:10:58Z</time>
      </trkpt>
      <trkpt lat="45.75324" lon="6.33857">
        <ele>559</ele>
        <time>2021-05-21T12:11:00Z</time>
      </trkpt>
      <trkpt lat="45.75338" lon="6.33883">
        <ele>555</ele>
        <time>2021-05-21T12:11:06Z</time>
      </trkpt>
      <trkpt lat="45.75342" lon="6.33901">
        <ele>556</ele>
        <time>2021-05-21T12:11:09Z</time>
      </trkpt>
      <trkpt lat="45.75347" lon="6.33945">
        <ele>561</ele>
        <time>2021-05-21T12:11:16Z</time>
      </trkpt>
      <trkpt lat="45.75347" lon="6.33973">
        <ele>565</ele>
        <time>2021-05-21T12:11:21Z</time>
      </trkpt>
      <trkpt lat="45.75351" lon="6.34018">
        <ele>571</ele>
        <time>2021-05-21T12:11:28Z</time>
      </trkpt>
      <trkpt lat="45.75346" lon="6.34028">
        <ele>573</ele>
        <time>2021-05-21T12:11:30Z</time>
      </trkpt>
      <trkpt lat="45.75336" lon="6.3404">
        <ele>577</ele>
        <time>2021-05-21T12:11:33Z</time>
      </trkpt>
      <trkpt lat="45.75344" lon="6.34057">
        <ele>578</ele>
        <time>2021-05-21T12:11:36Z</time>
      </trkpt>
      <trkpt lat="45.75346" lon="6.34067">
        <ele>579</ele>
        <time>2021-05-21T12:11:38Z</time>
      </trkpt>
      <trkpt lat="45.75344" lon="6.34093">
        <ele>582</ele>
        <time>2021-05-21T12:11:42Z</time>
      </trkpt>
      <trkpt lat="45.75346" lon="6.34107">
        <ele>583</ele>
        <time>2021-05-21T12:11:45Z</time>
      </trkpt>
      <trkpt lat="45.75376" lon="6.34187">
        <ele>583</ele>
        <time>2021-05-21T12:11:59Z</time>
      </trkpt>
      <trkpt lat="45.754" lon="6.34258">
        <ele>584</ele>
        <time>2021-05-21T12:12:12Z</time>
      </trkpt>
      <trkpt lat="45.75407" lon="6.34262">
        <ele>583</ele>
        <time>2021-05-21T12:12:14Z</time>
      </trkpt>
      <trkpt lat="45.7541" lon="6.3427">
        <ele>582</ele>
        <time>2021-05-21T12:12:16Z</time>
      </trkpt>
      <trkpt lat="45.75416" lon="6.34281">
        <ele>581</ele>
        <time>2021-05-21T12:12:18Z</time>
      </trkpt>
      <trkpt lat="45.75423" lon="6.34315">
        <ele>579</ele>
        <time>2021-05-21T12:12:24Z</time>
      </trkpt>
      <trkpt lat="45.75431" lon="6.34331">
        <ele>577</ele>
        <time>2021-05-21T12:12:27Z</time>
      </trkpt>
      <trkpt lat="45.7544" lon="6.34368">
        <ele>574</ele>
        <time>2021-05-21T12:12:33Z</time>
      </trkpt>
      <trkpt lat="45.75469" lon="6.34349">
        <ele>569</ele>
        <time>2021-05-21T12:12:41Z</time>
      </trkpt>
      <trkpt lat="45.75486" lon="6.34327">
        <ele>567</ele>
        <time>2021-05-21T12:12:46Z</time>
      </trkpt>
      <trkpt lat="45.75492" lon="6.34316">
        <ele>565</ele>
        <time>2021-05-21T12:12:48Z</time>
      </trkpt>
      <trkpt lat="45.75505" lon="6.34311">
        <ele>563</ele>
        <time>2021-05-21T12:12:51Z</time>
      </trkpt>
      <trkpt lat="45.75517" lon="6.34312">
        <ele>560</ele>
        <time>2021-05-21T12:12:54Z</time>
      </trkpt>
      <trkpt lat="45.75529" lon="6.3432">
        <ele>557</ele>
        <time>2021-05-21T12:12:57Z</time>
      </trkpt>
      <trkpt lat="45.75542" lon="6.34333">
        <ele>555</ele>
        <time>2021-05-21T12:13:01Z</time>
      </trkpt>
      <trkpt lat="45.75558" lon="6.3434">
        <ele>552</ele>
        <time>2021-05-21T12:13:05Z</time>
      </trkpt>
      <trkpt lat="45.75566" lon="6.34341">
        <ele>551</ele>
        <time>2021-05-21T12:13:07Z</time>
      </trkpt>
      <trkpt lat="45.75586" lon="6.34326">
        <ele>545</ele>
        <time>2021-05-21T12:13:12Z</time>
      </trkpt>
      <trkpt lat="45.75588" lon="6.34334">
        <ele>546</ele>
        <time>2021-05-21T12:13:13Z</time>
      </trkpt>
      <trkpt lat="45.75586" lon="6.34326">
        <ele>545</ele>
        <time>2021-05-21T12:13:15Z</time>
      </trkpt>
      <trkpt lat="45.75587" lon="6.3431">
        <ele>543</ele>
        <time>2021-05-21T12:13:17Z</time>
      </trkpt>
      <trkpt lat="45.75569" lon="6.34245">
        <ele>540</ele>
        <time>2021-05-21T12:13:29Z</time>
      </trkpt>
      <trkpt lat="45.7557" lon="6.3423">
        <ele>536</ele>
        <time>2021-05-21T12:13:31Z</time>
      </trkpt>
      <trkpt lat="45.75559" lon="6.34183">
        <ele>531</ele>
        <time>2021-05-21T12:13:39Z</time>
      </trkpt>
      <trkpt lat="45.75553" lon="6.34166">
        <ele>530</ele>
        <time>2021-05-21T12:13:43Z</time>
      </trkpt>
      <trkpt lat="45.75553" lon="6.34167">
        <ele>530</ele>
        <time>2021-05-21T12:13:43Z</time>
      </trkpt>
      <trkpt lat="45.75532" lon="6.34121">
        <ele>532</ele>
        <time>2021-05-21T12:13:52Z</time>
      </trkpt>
      <trkpt lat="45.75532" lon="6.34121">
        <ele>532</ele>
        <time>2021-05-21T12:13:52Z</time>
      </trkpt>
      <trkpt lat="45.75514" lon="6.34093">
        <ele>536</ele>
        <time>2021-05-21T12:13:58Z</time>
      </trkpt>
      <trkpt lat="45.75514" lon="6.34093">
        <ele>536</ele>
        <time>2021-05-21T12:13:58Z</time>
      </trkpt>
      <trkpt lat="45.75516" lon="6.34064">
        <ele>532</ele>
        <time>2021-05-21T12:14:03Z</time>
      </trkpt>
      <trkpt lat="45.75516" lon="6.34064">
        <ele>532</ele>
        <time>2021-05-21T12:14:03Z</time>
      </trkpt>
      <trkpt lat="45.75536" lon="6.34031">
        <ele>522</ele>
        <time>2021-05-21T12:14:10Z</time>
      </trkpt>
      <trkpt lat="45.75536" lon="6.34031">
        <ele>522</ele>
        <time>2021-05-21T12:14:10Z</time>
      </trkpt>
      <trkpt lat="45.75537" lon="6.34024">
        <ele>521</ele>
        <time>2021-05-21T12:14:11Z</time>
      </trkpt>
      <trkpt lat="45.75545" lon="6.33979">
        <ele>516</ele>
        <time>2021-05-21T12:14:18Z</time>
      </trkpt>
      <trkpt lat="45.75557" lon="6.33936">
        <ele>512</ele>
        <time>2021-05-21T12:14:26Z</time>
      </trkpt>
      <trkpt lat="45.75555" lon="6.33943">
        <ele>512</ele>
        <time>2021-05-21T12:14:27Z</time>
      </trkpt>
      <trkpt lat="45.75562" lon="6.3395">
        <ele>511</ele>
        <time>2021-05-21T12:14:29Z</time>
      </trkpt>
      <trkpt lat="45.75573" lon="6.33956">
        <ele>509</ele>
        <time>2021-05-21T12:14:32Z</time>
      </trkpt>
      <trkpt lat="45.75578" lon="6.33965">
        <ele>508</ele>
        <time>2021-05-21T12:14:34Z</time>
      </trkpt>
      <trkpt lat="45.75586" lon="6.33966">
        <ele>506</ele>
        <time>2021-05-21T12:14:36Z</time>
      </trkpt>
      <trkpt lat="45.75591" lon="6.33959">
        <ele>505</ele>
        <time>2021-05-21T12:14:37Z</time>
      </trkpt>
      <trkpt lat="45.7559" lon="6.33972">
        <ele>505</ele>
        <time>2021-05-21T12:14:39Z</time>
      </trkpt>
      <trkpt lat="45.75591" lon="6.33959">
        <ele>505</ele>
        <time>2021-05-21T12:14:42Z</time>
      </trkpt>
      <trkpt lat="45.7561" lon="6.33965">
        <ele>501</ele>
        <time>2021-05-21T12:14:46Z</time>
      </trkpt>
      <trkpt lat="45.75615" lon="6.33986">
        <ele>500</ele>
        <time>2021-05-21T12:14:50Z</time>
      </trkpt>
      <trkpt lat="45.75618" lon="6.33991">
        <ele>500</ele>
        <time>2021-05-21T12:14:51Z</time>
      </trkpt>
      <trkpt lat="45.7562" lon="6.33996">
        <ele>500</ele>
        <time>2021-05-21T12:14:52Z</time>
      </trkpt>
      <trkpt lat="45.75627" lon="6.33991">
        <ele>498</ele>
        <time>2021-05-21T12:14:54Z</time>
      </trkpt>
      <trkpt lat="45.75648" lon="6.33966">
        <ele>494</ele>
        <time>2021-05-21T12:15:00Z</time>
      </trkpt>
      <trkpt lat="45.75697" lon="6.33951">
        <ele>486</ele>
        <time>2021-05-21T12:15:12Z</time>
      </trkpt>
      <trkpt lat="45.75717" lon="6.33939">
        <ele>483</ele>
        <time>2021-05-21T12:15:17Z</time>
      </trkpt>
      <trkpt lat="45.75728" lon="6.33953">
        <ele>482</ele>
        <time>2021-05-21T12:15:20Z</time>
      </trkpt>
      <trkpt lat="45.75749" lon="6.33963">
        <ele>479</ele>
        <time>2021-05-21T12:15:25Z</time>
      </trkpt>
      <trkpt lat="45.75783" lon="6.33967">
        <ele>476</ele>
        <time>2021-05-21T12:15:33Z</time>
      </trkpt>
      <trkpt lat="45.75803" lon="6.33957">
        <ele>474</ele>
        <time>2021-05-21T12:15:38Z</time>
      </trkpt>
      <trkpt lat="45.75839" lon="6.3392">
        <ele>471</ele>
        <time>2021-05-21T12:15:49Z</time>
      </trkpt>
      <trkpt lat="45.75867" lon="6.339">
        <ele>470</ele>
        <time>2021-05-21T12:15:56Z</time>
      </trkpt>
      <trkpt lat="45.75867" lon="6.33896">
        <ele>470</ele>
        <time>2021-05-21T12:15:57Z</time>
      </trkpt>
      <trkpt lat="45.75846" lon="6.33872">
        <ele>471</ele>
        <time>2021-05-21T12:16:03Z</time>
      </trkpt>
      <trkpt lat="45.75846" lon="6.33872">
        <ele>471</ele>
        <time>2021-05-21T12:16:03Z</time>
      </trkpt>
      <trkpt lat="45.75826" lon="6.33855">
        <ele>472</ele>
        <time>2021-05-21T12:16:08Z</time>
      </trkpt>
      <trkpt lat="45.75826" lon="6.33855">
        <ele>472</ele>
        <time>2021-05-21T12:16:08Z</time>
      </trkpt>
      <trkpt lat="45.75812" lon="6.3383">
        <ele>473</ele>
        <time>2021-05-21T12:16:13Z</time>
      </trkpt>
      <trkpt lat="45.75812" lon="6.3383">
        <ele>473</ele>
        <time>2021-05-21T12:16:13Z</time>
      </trkpt>
      <trkpt lat="45.75781" lon="6.33819">
        <ele>476</ele>
        <time>2021-05-21T12:16:21Z</time>
      </trkpt>
      <trkpt lat="45.75781" lon="6.33819">
        <ele>476</ele>
        <time>2021-05-21T12:16:21Z</time>
      </trkpt>
      <trkpt lat="45.75772" lon="6.3382">
        <ele>477</ele>
        <time>2021-05-21T12:16:23Z</time>
      </trkpt>
      <trkpt lat="45.75772" lon="6.3382">
        <ele>477</ele>
        <time>2021-05-21T12:16:23Z</time>
      </trkpt>
      <trkpt lat="45.75691" lon="6.33631">
        <ele>480</ele>
        <time>2021-05-21T12:16:59Z</time>
      </trkpt>
      <trkpt lat="45.75691" lon="6.33631">
        <ele>480</ele>
        <time>2021-05-21T12:16:59Z</time>
      </trkpt>
      <trkpt lat="45.75664" lon="6.33588">
        <ele>480</ele>
        <time>2021-05-21T12:17:09Z</time>
      </trkpt>
      <trkpt lat="45.75664" lon="6.33588">
        <ele>480</ele>
        <time>2021-05-21T12:17:09Z</time>
      </trkpt>
      <trkpt lat="45.7564" lon="6.3356">
        <ele>484</ele>
        <time>2021-05-21T12:17:16Z</time>
      </trkpt>
      <trkpt lat="45.7564" lon="6.3356">
        <ele>484</ele>
        <time>2021-05-21T12:17:16Z</time>
      </trkpt>
      <trkpt lat="45.75623" lon="6.33532">
        <ele>487</ele>
        <time>2021-05-21T12:17:22Z</time>
      </trkpt>
      <trkpt lat="45.75623" lon="6.33532">
        <ele>487</ele>
        <time>2021-05-21T12:17:22Z</time>
      </trkpt>
      <trkpt lat="45.75624" lon="6.33493">
        <ele>487</ele>
        <time>2021-05-21T12:17:28Z</time>
      </trkpt>
      <trkpt lat="45.75629" lon="6.33494">
        <ele>487</ele>
        <time>2021-05-21T12:17:29Z</time>
      </trkpt>
      <trkpt lat="45.75632" lon="6.33466">
        <ele>487</ele>
        <time>2021-05-21T12:17:34Z</time>
      </trkpt>
      <trkpt lat="45.75647" lon="6.33384">
        <ele>486</ele>
        <time>2021-05-21T12:17:48Z</time>
      </trkpt>
      <trkpt lat="45.75616" lon="6.33277">
        <ele>488</ele>
        <time>2021-05-21T12:18:07Z</time>
      </trkpt>
      <trkpt lat="45.75596" lon="6.33189">
        <ele>487</ele>
        <time>2021-05-21T12:18:22Z</time>
      </trkpt>
      <trkpt lat="45.75591" lon="6.33173">
        <ele>487</ele>
        <time>2021-05-21T12:18:25Z</time>
      </trkpt>
      <trkpt lat="45.7556" lon="6.33116">
        <ele>485</ele>
        <time>2021-05-21T12:18:36Z</time>
      </trkpt>
      <trkpt lat="45.75543" lon="6.33065">
        <ele>484</ele>
        <time>2021-05-21T12:18:46Z</time>
      </trkpt>
      <trkpt lat="45.75534" lon="6.33047">
        <ele>484</ele>
        <time>2021-05-21T12:18:49Z</time>
      </trkpt>
      <trkpt lat="45.75529" lon="6.33027">
        <ele>484</ele>
        <time>2021-05-21T12:18:53Z</time>
      </trkpt>
      <trkpt lat="45.75522" lon="6.33016">
        <ele>484</ele>
        <time>2021-05-21T12:18:55Z</time>
      </trkpt>
      <trkpt lat="45.75507" lon="6.32924">
        <ele>488</ele>
        <time>2021-05-21T12:19:11Z</time>
      </trkpt>
      <trkpt lat="45.75484" lon="6.32865">
        <ele>489</ele>
        <time>2021-05-21T12:19:22Z</time>
      </trkpt>
      <trkpt lat="45.75485" lon="6.32822">
        <ele>490</ele>
        <time>2021-05-21T12:19:29Z</time>
      </trkpt>
      <trkpt lat="45.75476" lon="6.32739">
        <ele>489</ele>
        <time>2021-05-21T12:19:42Z</time>
      </trkpt>
      <trkpt lat="45.75468" lon="6.32613">
        <ele>490</ele>
        <time>2021-05-21T12:20:03Z</time>
      </trkpt>
      <trkpt lat="45.75464" lon="6.32588">
        <ele>490</ele>
        <time>2021-05-21T12:20:07Z</time>
      </trkpt>
      <trkpt lat="45.75437" lon="6.32571">
        <ele>491</ele>
        <time>2021-05-21T12:20:14Z</time>
      </trkpt>
      <trkpt lat="45.75423" lon="6.32555">
        <ele>491</ele>
        <time>2021-05-21T12:20:18Z</time>
      </trkpt>
      <trkpt lat="45.75397" lon="6.32504">
        <ele>492</ele>
        <time>2021-05-21T12:20:28Z</time>
      </trkpt>
      <trkpt lat="45.75387" lon="6.32476">
        <ele>493</ele>
        <time>2021-05-21T12:20:34Z</time>
      </trkpt>
      <trkpt lat="45.75352" lon="6.32348">
        <ele>501</ele>
        <time>2021-05-21T12:20:56Z</time>
      </trkpt>
      <trkpt lat="45.75349" lon="6.3232">
        <ele>502</ele>
        <time>2021-05-21T12:21:01Z</time>
      </trkpt>
      <trkpt lat="45.75355" lon="6.32299">
        <ele>501</ele>
        <time>2021-05-21T12:21:04Z</time>
      </trkpt>
      <trkpt lat="45.75426" lon="6.32198">
        <ele>491</ele>
        <time>2021-05-21T12:21:28Z</time>
      </trkpt>
      <trkpt lat="45.75457" lon="6.32142">
        <ele>490</ele>
        <time>2021-05-21T12:21:39Z</time>
      </trkpt>
      <trkpt lat="45.75545" lon="6.31998">
        <ele>488</ele>
        <time>2021-05-21T12:22:10Z</time>
      </trkpt>
      <trkpt lat="45.75568" lon="6.31975">
        <ele>488</ele>
        <time>2021-05-21T12:22:17Z</time>
      </trkpt>
      <trkpt lat="45.75648" lon="6.31907">
        <ele>491</ele>
        <time>2021-05-21T12:22:39Z</time>
      </trkpt>
      <trkpt lat="45.75665" lon="6.3188">
        <ele>492</ele>
        <time>2021-05-21T12:22:45Z</time>
      </trkpt>
      <trkpt lat="45.75679" lon="6.31834">
        <ele>492</ele>
        <time>2021-05-21T12:22:53Z</time>
      </trkpt>
      <trkpt lat="45.7569" lon="6.31768">
        <ele>493</ele>
        <time>2021-05-21T12:23:04Z</time>
      </trkpt>
      <trkpt lat="45.75697" lon="6.31753">
        <ele>494</ele>
        <time>2021-05-21T12:23:07Z</time>
      </trkpt>
      <trkpt lat="45.75527" lon="6.31391">
        <ele>494</ele>
        <time>2021-05-21T12:24:18Z</time>
      </trkpt>
      <trkpt lat="45.75529" lon="6.3139">
        <ele>494</ele>
        <time>2021-05-21T12:24:18Z</time>
      </trkpt>
      <trkpt lat="45.75514" lon="6.31405">
        <ele>494</ele>
        <time>2021-05-21T12:24:23Z</time>
      </trkpt>
      <trkpt lat="45.75514" lon="6.31405">
        <ele>494</ele>
        <time>2021-05-21T12:24:23Z</time>
      </trkpt>
      <trkpt lat="45.75504" lon="6.31392">
        <ele>494</ele>
        <time>2021-05-21T12:24:26Z</time>
      </trkpt>
      <trkpt lat="45.75504" lon="6.31392">
        <ele>494</ele>
        <time>2021-05-21T12:24:26Z</time>
      </trkpt>
      <trkpt lat="45.75495" lon="6.31363">
        <ele>494</ele>
        <time>2021-05-21T12:24:31Z</time>
      </trkpt>
      <trkpt lat="45.75495" lon="6.31363">
        <ele>494</ele>
        <time>2021-05-21T12:24:31Z</time>
      </trkpt>
      <trkpt lat="45.75492" lon="6.31325">
        <ele>494</ele>
        <time>2021-05-21T12:24:37Z</time>
      </trkpt>
      <trkpt lat="45.75492" lon="6.31325">
        <ele>494</ele>
        <time>2021-05-21T12:24:37Z</time>
      </trkpt>
      <trkpt lat="45.75401" lon="6.31143">
        <ele>494</ele>
        <time>2021-05-21T12:25:14Z</time>
      </trkpt>
      <trkpt lat="45.75401" lon="6.31143">
        <ele>494</ele>
        <time>2021-05-21T12:25:14Z</time>
      </trkpt>
      <trkpt lat="45.75327" lon="6.30984">
        <ele>495</ele>
        <time>2021-05-21T12:25:45Z</time>
      </trkpt>
      <trkpt lat="45.75327" lon="6.30984">
        <ele>495</ele>
        <time>2021-05-21T12:25:45Z</time>
      </trkpt>
      <trkpt lat="45.75305" lon="6.30969">
        <ele>495</ele>
        <time>2021-05-21T12:25:51Z</time>
      </trkpt>
      <trkpt lat="45.75305" lon="6.30969">
        <ele>495</ele>
        <time>2021-05-21T12:25:51Z</time>
      </trkpt>
      <trkpt lat="45.75269" lon="6.30897">
        <ele>495</ele>
        <time>2021-05-21T12:26:05Z</time>
      </trkpt>
      <trkpt lat="45.75269" lon="6.30897">
        <ele>495</ele>
        <time>2021-05-21T12:26:05Z</time>
      </trkpt>
      <trkpt lat="45.75255" lon="6.30902">
        <ele>495</ele>
        <time>2021-05-21T12:26:08Z</time>
      </trkpt>
      <trkpt lat="45.75255" lon="6.30902">
        <ele>495</ele>
        <time>2021-05-21T12:26:08Z</time>
      </trkpt>
      <trkpt lat="45.7523" lon="6.3091">
        <ele>495</ele>
        <time>2021-05-21T12:26:14Z</time>
      </trkpt>
      <trkpt lat="45.7523" lon="6.3091">
        <ele>495</ele>
        <time>2021-05-21T12:26:14Z</time>
      </trkpt>
      <trkpt lat="45.75181" lon="6.3086">
        <ele>495</ele>
        <time>2021-05-21T12:26:28Z</time>
      </trkpt>
      <trkpt lat="45.75181" lon="6.3086">
        <ele>495</ele>
        <time>2021-05-21T12:26:28Z</time>
      </trkpt>
      <trkpt lat="45.75092" lon="6.30743">
        <ele>501</ele>
        <time>2021-05-21T12:26:57Z</time>
      </trkpt>
      <trkpt lat="45.75092" lon="6.30743">
        <ele>501</ele>
        <time>2021-05-21T12:26:57Z</time>
      </trkpt>
      <trkpt lat="45.75076" lon="6.30722">
        <ele>503</ele>
        <time>2021-05-21T12:27:02Z</time>
      </trkpt>
      <trkpt lat="45.75076" lon="6.30722">
        <ele>503</ele>
        <time>2021-05-21T12:27:02Z</time>
      </trkpt>
      <trkpt lat="45.75077" lon="6.30696">
        <ele>503</ele>
        <time>2021-05-21T12:27:06Z</time>
      </trkpt>
      <trkpt lat="45.75077" lon="6.30696">
        <ele>503</ele>
        <time>2021-05-21T12:27:06Z</time>
      </trkpt>
      <trkpt lat="45.75076" lon="6.307">
        <ele>504</ele>
        <time>2021-05-21T12:27:07Z</time>
      </trkpt>
      <trkpt lat="45.75058" lon="6.30686">
        <ele>507</ele>
        <time>2021-05-21T12:27:11Z</time>
      </trkpt>
      <trkpt lat="45.75009" lon="6.30638">
        <ele>512</ele>
        <time>2021-05-21T12:27:25Z</time>
      </trkpt>
      <trkpt lat="45.74993" lon="6.30618">
        <ele>516</ele>
        <time>2021-05-21T12:27:30Z</time>
      </trkpt>
      <trkpt lat="45.74983" lon="6.30604">
        <ele>520</ele>
        <time>2021-05-21T12:27:34Z</time>
      </trkpt>
      <trkpt lat="45.74976" lon="6.3059">
        <ele>522</ele>
        <time>2021-05-21T12:27:36Z</time>
      </trkpt>
      <trkpt lat="45.74956" lon="6.30525">
        <ele>525</ele>
        <time>2021-05-21T12:27:48Z</time>
      </trkpt>
      <trkpt lat="45.7494" lon="6.30483">
        <ele>527</ele>
        <time>2021-05-21T12:27:56Z</time>
      </trkpt>
      <trkpt lat="45.7492" lon="6.304">
        <ele>521</ele>
        <time>2021-05-21T12:28:10Z</time>
      </trkpt>
      <trkpt lat="45.74908" lon="6.30361">
        <ele>522</ele>
        <time>2021-05-21T12:28:17Z</time>
      </trkpt>
      <trkpt lat="45.74856" lon="6.30227">
        <ele>531</ele>
        <time>2021-05-21T12:28:42Z</time>
      </trkpt>
      <trkpt lat="45.74851" lon="6.30183">
        <ele>523</ele>
        <time>2021-05-21T12:28:49Z</time>
      </trkpt>
      <trkpt lat="45.74847" lon="6.30166">
        <ele>520</ele>
        <time>2021-05-21T12:28:52Z</time>
      </trkpt>
      <trkpt lat="45.7483" lon="6.30139">
        <ele>521</ele>
        <time>2021-05-21T12:28:58Z</time>
      </trkpt>
      <trkpt lat="45.7482" lon="6.30128">
        <ele>522</ele>
        <time>2021-05-21T12:29:01Z</time>
      </trkpt>
      <trkpt lat="45.74789" lon="6.30104">
        <ele>527</ele>
        <time>2021-05-21T12:29:09Z</time>
      </trkpt>
      <trkpt lat="45.74766" lon="6.30079">
        <ele>527</ele>
        <time>2021-05-21T12:29:16Z</time>
      </trkpt>
      <trkpt lat="45.74751" lon="6.30055">
        <ele>526</ele>
        <time>2021-05-21T12:29:21Z</time>
      </trkpt>
      <trkpt lat="45.74737" lon="6.30028">
        <ele>526</ele>
        <time>2021-05-21T12:29:27Z</time>
      </trkpt>
      <trkpt lat="45.74696" lon="6.29912">
        <ele>527</ele>
        <time>2021-05-21T12:29:48Z</time>
      </trkpt>
      <trkpt lat="45.74688" lon="6.29864">
        <ele>528</ele>
        <time>2021-05-21T12:29:56Z</time>
      </trkpt>
      <trkpt lat="45.74672" lon="6.29821">
        <ele>531</ele>
        <time>2021-05-21T12:30:04Z</time>
      </trkpt>
      <trkpt lat="45.74655" lon="6.29755">
        <ele>533</ele>
        <time>2021-05-21T12:30:15Z</time>
      </trkpt>
      <trkpt lat="45.74651" lon="6.29727">
        <ele>532</ele>
        <time>2021-05-21T12:30:20Z</time>
      </trkpt>
      <trkpt lat="45.74651" lon="6.29728">
        <ele>532</ele>
        <time>2021-05-21T12:30:20Z</time>
      </trkpt>
      <trkpt lat="45.74654" lon="6.29667">
        <ele>524</ele>
        <time>2021-05-21T12:30:30Z</time>
      </trkpt>
      <trkpt lat="45.74654" lon="6.29667">
        <ele>524</ele>
        <time>2021-05-21T12:30:30Z</time>
      </trkpt>
      <trkpt lat="45.74654" lon="6.29638">
        <ele>523</ele>
        <time>2021-05-21T12:30:35Z</time>
      </trkpt>
    </trkseg>
  </trk>
</gpx>